Spirit Of Tasmania II — VNSZ — position and weather

sailwx.info

Track history (hours):
 
Tides and Currents Weather Stations Pressure Air Temp Water Temp Dewpoint Dewpoint Depression Visibility Wind Speed Wind Dir Waves Ship Positions

Spirit Of Tasmania II

Last reported at 2020-Jul-09 04:00 UTC. Time now 2020-Jul-09 05:23 UTC.
Position S 37°48' E 144°54'.

Length 194.3 m; beam 25 m; draft 6.2 m.

Type: Ship. MMSI: 503433000.

Wind from 010 at 14 knots

Barometer 1025.7 mb
Air temperature 15.4 ° C
Water temperature 11.9 ° C

Date/timePositionNaut miles runAvg speedWind from/ knotsBaromVisibWave heightAir tempDewpointWater temp
2020-Jul-09 04:00S 37°48' E 144°54'0 0.0 010 / 141025.7 15.4 11.9
2020-Jul-09 03:00S 37°48' E 144°54'0 0.0 010 / 151026.4 15.1 11.8
2020-Jul-09 02:00S 37°48' E 144°54'0 0.0 020 / 101027.7 14.1 11.7
2020-Jul-09 01:00S 37°48' E 144°54'0 0.0 360 / 51028.3 12.8
2020-Jul-09 00:00S 37°48' E 144°54'0 0.0 020 / 91028.0 11.1 11.7
2020-Jul-08 23:00S 37°48' E 144°54'0 0.0 010 / 111028.4 9.0 11.7
2020-Jul-08 22:00S 37°48' E 144°54'0 0.0 360 / 51027.6 8.5 11.7
2020-Jul-08 21:00S 37°48' E 144°54'6 6.0 010 / 91027.2 8.4 11.9
2020-Jul-08 20:00S 37°54' E 144°54'2424.0 030 / 141026.9 8.8 11.6
2020-Jul-08 19:00S 38°18' E 144°54'1414.1 080 / 121026.8 8.8 12.2
2020-Jul-08 18:00S 38°18' E 144°36'2020.3 030 / 141026.5 10.1 13.2
2020-Jul-08 17:00S 38°36' E 144°48'2020.3 040 / 171026.6 10.8 13.6
2020-Jul-08 16:00S 38°54' E 145°00'2020.3 030 / 151026.7 11.2 13.7
2020-Jul-08 15:00S 39°12' E 145°12'4020.2 050 / 131027.1 11.3 13.5
2020-Jul-08 13:00S 39°48' E 145°36'2625.7 360 / 71028.2 10.9 13.1
2020-Jul-08 12:00S 40°12' E 145°48'1918.8 020 / 101028.1 11.2 13.0
2020-Jul-08 11:00S 40°29' E 145°58'2589.3
2020-Jul-08 11:00S 40°30' E 146°00'2625.7 090 / 71028.4 10.9 12.9
2020-Jul-08 10:00S 40°54' E 146°12'2020.1 100 / 71029.0 9.8 12.9
2020-Jul-08 09:00S 41°12' E 146°24'0 0.0 170 / 41029.2 8.0 12.6
2020-Jul-08 07:00S 41°12' E 146°24'0 0.0 160 / 71028.3 8.2 12.5
2020-Jul-08 06:00S 41°12' E 146°24'2 3.9 170 / 71028.3 8.4 12.3
2020-Jul-08 05:30S 41°11' E 146°22'2 3.7
2020-Jul-08 05:00S 41°12' E 146°24'0 0.0 180 / 91028.5 8.5 12.7
2020-Jul-08 04:00S 41°12' E 146°24'2 1.9 180 / 61029.1 7.6 12.6
2020-Jul-08 03:01S 41°11' E 146°22'2114.7
2020-Jul-08 03:00S 41°12' E 146°24'0 0.0 190 / 71029.6 7.0 12.5
2020-Jul-08 02:00S 41°12' E 146°24'0 0.0 170 / 71030.2 6.8 12.2
2020-Jul-08 01:00S 41°12' E 146°24'0 0.0 160 / 71030.9 5.9 12.0
2020-Jul-08 00:00S 41°12' E 146°24'2 1.9 170 / 91031.5 6.3 11.5
2020-Jul-07 23:00S 41°11' E 146°22'2120.5
2020-Jul-07 23:00S 41°12' E 146°24'2 1.9 170 / 61031.6 5.7 11.1
2020-Jul-07 22:00S 41°11' E 146°22'2214.7
2020-Jul-07 22:00S 41°12' E 146°24'0 0.0 170 / 81031.0 5.1 11.5
2020-Jul-07 21:00S 41°12' E 146°24'2 3.9 170 / 81030.8 5.3 11.6
2020-Jul-07 20:30S 41°11' E 146°22'611.1
2020-Jul-07 20:00S 41°06' E 146°18'2020.2 160 / 141030.8 7.4 12.7
2020-Jul-07 19:00S 40°48' E 146°06'816.6 040 / 121030.7 10.0 12.9
2020-Jul-07 18:30S 40°40' E 146°04'1020.7
2020-Jul-07 18:00S 40°30' E 146°00'2020.2 050 / 191030.0 9.6
2020-Jul-07 17:00S 40°12' E 145°48'2020.2 050 / 151030.1 10.9 13.0
2020-Jul-07 16:00S 39°54' E 145°36'2020.2 040 / 161030.0 11.1 13.2
2020-Jul-07 15:00S 39°36' E 145°24'2020.2 040 / 161029.9 10.9 13.5
2020-Jul-07 14:00S 39°18' E 145°12'2020.3 100 / 31030.2 11.4 13.7
2020-Jul-07 13:00S 39°00' E 145°00'2625.8 220 / 51030.6 10.7 13.7
2020-Jul-07 12:00S 38°36' E 144°48'2020.3 200 / 91031.2 10.7 13.5
2020-Jul-07 11:00S 38°18' E 144°36'1515.4 140 / 21031.8 10.7 13.0
2020-Jul-07 10:00S 38°12' E 144°54'2412.0 180 / 121031.7 10.5 12.1
2020-Jul-07 08:00S 37°48' E 144°54'0 0.0 170 / 61031.1 11.3 11.9
2020-Jul-07 07:00S 37°48' E 144°54'0 0.0 160 / 81031.0 11.1 11.8
2020-Jul-07 06:00S 37°48' E 144°54'0 0.0 160 / 81030.8 10.7 11.8
2020-Jul-07 05:00S 37°48' E 144°54'0 0.0 190 / 41031.2 11.0 11.8
2020-Jul-07 04:00S 37°48' E 144°54'0 0.0 190 / 61031.3 10.4 11.8
2020-Jul-07 03:00S 37°48' E 144°54'0 0.0 210 / 51031.8 10.7 11.8
2020-Jul-07 00:00S 37°48' E 144°54'0 0.0 270 / 21033.0 10.0
2020-Jul-06 23:00S 37°48' E 144°54'0 0.0 270 / 31032.7 9.8 11.8
2020-Jul-06 22:00S 37°48' E 144°54'0 0.0 270 / 31032.5 9.7 11.8
2020-Jul-06 21:00S 37°48' E 144°54'6 6.0 290 / 41032.2 9.2 12.0
2020-Jul-06 20:00S 37°54' E 144°54'2424.0 260 / 121031.9 9.7
2020-Jul-06 19:00S 38°18' E 144°54'1414.1 290 / 111031.3 10.1 12.3
2020-Jul-06 18:00S 38°18' E 144°36'4120.3 290 / 131031.6 10.0 13.4
2020-Jul-06 16:00S 38°54' E 145°00'2020.3 230 / 111031.3 12.1 13.8
2020-Jul-06 15:00S 39°12' E 145°12'2625.7 240 / 181030.7 11.8 13.6
2020-Jul-06 14:00S 39°36' E 145°24'2020.2 240 / 171030.9 12.1 13.5
2020-Jul-06 13:00S 39°54' E 145°36'2020.2 230 / 201030.5 12.1 13.2
2020-Jul-06 12:00S 40°12' E 145°48'2020.2 250 / 221029.8 11.8 13.0
2020-Jul-06 11:00S 40°30' E 146°00'629.1 250 / 271028.5 11.3 13.0
2020-Jul-06 10:48S 40°35' E 146°02'1721.8
2020-Jul-06 10:00S 40°51' E 146°11'3208.0
2020-Jul-06 10:00S 40°54' E 146°12'816.9 280 / 201028.0 11.7 13.0
2020-Jul-06 09:30S 41°01' E 146°18'1223.3
2020-Jul-06 09:00S 41°12' E 146°24'0 0.0 290 / 101026.8 10.8
2020-Jul-06 08:00S 41°12' E 146°24'0 0.0 290 / 101026.5 11.6 12.3
2020-Jul-06 07:00S 41°12' E 146°24'0 0.0 250 / 91026.4 13.2 12.6
2020-Jul-06 06:00S 41°12' E 146°24'0 0.0 230 / 151024.9 13.9 12.9
2020-Jul-06 05:00S 41°12' E 146°24'0 0.0 230 / 71025.5 14.9 12.9
2020-Jul-06 04:00S 41°12' E 146°24'0 0.0 240 / 101025.0 14.5 12.7
2020-Jul-06 03:00S 41°12' E 146°24'0 0.0 260 / 91024.6 14.3 12.9
2020-Jul-06 02:00S 41°12' E 146°24'0 0.0 310 / 121025.7 12.7 12.9
2020-Jul-06 01:00S 41°12' E 146°24'0 0.0 300 / 111026.4 12.1 12.8
2020-Jul-06 00:00S 41°12' E 146°24'0 0.0 280 / 31026.6 9.6 12.6
2020-Jul-05 23:00S 41°12' E 146°24'0 0.0 260 / 41027.0 4.8 12.5
2020-Jul-05 22:00S 41°12' E 146°24'0 0.0 200 / 51026.7 4.6 11.9
2020-Jul-05 21:00S 41°12' E 146°24'0 0.0 180 / 21026.4 5.1 11.4
2020-Jul-05 20:00S 41°12' E 146°24'0 0.0 270 / 81025.5 9.6
2020-Jul-05 19:00S 41°12' E 146°24'0 0.0 240 / 61025.1 7.7 11.7
2020-Jul-05 17:00S 41°12' E 146°24'0 0.0 220 / 61025.0 9.5 12.2
2020-Jul-05 15:00S 41°12' E 146°24'0 0.0 180 / 41024.6 9.5 12.8
2020-Jul-05 14:00S 41°12' E 146°24'0 0.0 300 / 21024.7 9.8
2020-Jul-05 13:00S 41°12' E 146°24'0 0.0 210 / 31024.4 11.1
2020-Jul-05 12:00S 41°12' E 146°24'0 0.0 190 / 91023.9 11.4 12.8
2020-Jul-05 11:00S 41°12' E 146°24'0 0.0 200 / 81023.8 11.5 12.7
2020-Jul-05 10:00S 41°12' E 146°24'0 0.0 210 / 141023.0 12.4 12.6
2020-Jul-05 09:00S 41°12' E 146°24'0 0.0 210 / 101022.9 13.0 12.4
2020-Jul-05 08:00S 41°12' E 146°24'0 0.0 210 / 111022.2 13.7 12.3
2020-Jul-05 07:00S 41°12' E 146°24'0 0.0 230 / 121020.5 14.6 12.1
2020-Jul-05 06:00S 41°12' E 146°24'0 0.0 230 / 111019.9 15.8 12.3
2020-Jul-05 05:00S 41°12' E 146°24'0 0.0 240 / 111020.6 16.3 12.6
2020-Jul-05 04:00S 41°12' E 146°24'212.0 270 / 81020.2 16.2 12.7
2020-Jul-05 03:50S 41°11' E 146°22'2 2.3
2020-Jul-05 03:00S 41°12' E 146°24'229.2 290 / 101020.8 15.5 12.7
2020-Jul-05 02:56S 41°11' E 146°22'2 2.0
2020-Jul-05 02:00S 41°12' E 146°24'225.9 290 / 81021.4 14.6 12.8
2020-Jul-05 01:55S 41°11' E 146°22'2 2.1
2020-Jul-05 01:00S 41°12' E 146°24'0 0.0 300 / 71021.5 12.6 12.7
2020-Jul-05 00:00S 41°12' E 146°24'0 0.0 280 / 71021.2 12.8 12.7
2020-Jul-04 23:00S 41°12' E 146°24'2 3.8 230 / 111020.6 12.3 12.7
2020-Jul-04 22:30S 41°11' E 146°22'2 3.8
2020-Jul-04 22:00S 41°12' E 146°24'0 0.0 260 / 41020.5 11.0 12.6
2020-Jul-04 21:00S 41°12' E 146°24'6 5.8 230 / 31019.7 11.1 12.7
2020-Jul-04 20:00S 41°07' E 146°21'3170.3
2020-Jul-04 20:00S 41°06' E 146°18'918.7 220 / 141019.3 11.7 12.9
2020-Jul-04 19:30S 40°57' E 146°15'1222.6
2020-Jul-04 19:00S 40°48' E 146°06'1021.6 240 / 291019.4 11.3 12.9
2020-Jul-04 18:30S 40°38' E 146°04'1630.1
2020-Jul-04 18:00S 40°24' E 145°54'1918.6 240 / 311020.3 10.9 13.1
2020-Jul-04 17:00S 40°06' E 145°48'2322.7 230 / 361020.6 11.1 13.0
2020-Jul-04 16:00S 39°48' E 145°30'2020.2 230 / 361021.5 11.3 13.5
2020-Jul-04 15:00S 39°30' E 145°18'1918.6 240 / 401021.4 11.8 13.5
2020-Jul-04 14:00S 39°12' E 145°12'2020.3 230 / 371022.7 11.6 13.8
2020-Jul-04 13:00S 38°54' E 145°00'2020.3 230 / 361023.4 11.8 13.6
2020-Jul-04 12:00S 38°36' E 144°48'19 9.3 230 / 341023.4 12.5 13.5
2020-Jul-04 10:00S 38°18' E 144°54'1818.0 240 / 251023.7 11.9 12.1
2020-Jul-04 09:00S 38°00' E 144°54'1212.0 260 / 171024.2 11.5 12.1
2020-Jul-04 08:00S 37°48' E 144°54'0 0.0 250 / 61023.9 11.9 11.6
2020-Jul-04 07:00S 37°48' E 144°54'0 0.0 260 / 81023.3 13.1
2020-Jul-04 06:00S 37°48' E 144°54'0 0.0 240 / 101023.0 12.8 11.4
2020-Jul-04 05:00S 37°48' E 144°54'0 0.0 280 / 61022.8 12.7 11.3
2020-Jul-04 04:00S 37°48' E 144°54'0 0.0 280 / 101022.8 13.1 11.3
2020-Jul-04 03:00S 37°48' E 144°54'0 0.0 270 / 151023.4 12.5 11.5
2020-Jul-04 02:00S 37°48' E 144°54'0 0.0 270 / 71024.1 11.8 11.5
2020-Jul-04 01:00S 37°48' E 144°54'0 0.0 310 / 91024.3 10.5 11.4
2020-Jul-04 00:00S 37°48' E 144°54'0 0.0 310 / 91024.3 9.2 11.3
2020-Jul-03 23:00S 37°48' E 144°54'0 0.0 310 / 101023.9 8.4 11.5
2020-Jul-03 22:00S 37°48' E 144°54'0 0.0 300 / 81024.0 8.0
2020-Jul-03 21:00S 37°48' E 144°54'6 6.0 320 / 91023.6 7.0 11.7
2020-Jul-03 20:00S 37°54' E 144°54'2424.0 280 / 221023.0 7.8 11.9
2020-Jul-03 19:00S 38°18' E 144°54'1414.1 280 / 221022.1 8.3 12.2
2020-Jul-03 18:00S 38°18' E 144°36'2020.3 290 / 211022.6 7.9 13.2
2020-Jul-03 17:00S 38°36' E 144°48'2020.3 240 / 241021.7 10.9 13.6
2020-Jul-03 16:00S 38°54' E 145°00'2020.3 240 / 271021.2 10.4 13.7
2020-Jul-03 15:00S 39°12' E 145°12'2020.3 240 / 291020.6 10.5 13.7
2020-Jul-03 14:00S 39°30' E 145°24'1918.6 240 / 291019.7 10.3 13.4
2020-Jul-03 13:00S 39°48' E 145°30'2020.2 230 / 281019.7 9.6 13.3
2020-Jul-03 12:00S 40°06' E 145°42'2625.7 230 / 291019.0 9.6 13.0
2020-Jul-03 11:00S 40°30' E 145°54'816.5 230 / 291018.0 9.5 13.0
2020-Jul-03 10:30S 40°36' E 146°02'1121.8
2020-Jul-03 10:00S 40°45' E 146°08'3252.9
2020-Jul-03 10:00S 40°48' E 146°06'919.4 230 / 271017.3 9.2 13.0
2020-Jul-03 09:30S 40°55' E 146°14'1121.7
2020-Jul-03 09:00S 41°05' E 146°20'3194.0
2020-Jul-03 09:00S 41°06' E 146°24'510.7 260 / 171015.8 9.1 13.1
2020-Jul-03 08:30S 41°11' E 146°22'2 3.6
2020-Jul-03 08:00S 41°12' E 146°24'0 0.0 240 / 121015.5 9.1 12.3
2020-Jul-03 07:00S 41°12' E 146°24'2 3.1 250 / 121014.9 9.8 11.7
2020-Jul-03 06:23S 41°11' E 146°22'2 4.9
2020-Jul-03 06:00S 41°12' E 146°24'0 0.0 260 / 131013.9 10.9 11.0
2020-Jul-03 05:00S 41°12' E 146°24'0 0.0 280 / 111013.3 11.2 10.9
2020-Jul-03 04:00S 41°12' E 146°24'214.6 280 / 111013.2 10.8 11.0
2020-Jul-03 03:52S 41°11' E 146°22'2 2.2
2020-Jul-03 03:00S 41°12' E 146°24'2 4.3 280 / 111013.5 10.5 11.4
2020-Jul-03 02:33S 41°11' E 146°22'0 0.0
2020-Jul-03 02:21S 41°11' E 146°22'2 5.3
2020-Jul-03 02:00S 41°12' E 146°24'0 0.0 270 / 81013.1 10.2 12.1
2020-Jul-03 01:00S 41°12' E 146°24'0 0.0 290 / 101013.2 9.1 12.3
2020-Jul-03 00:00S 41°12' E 146°24'0 0.0 300 / 61013.4 7.7 12.5
2020-Jul-02 23:00S 41°12' E 146°24'0 0.0 280 / 91013.3 6.3 12.5
2020-Jul-02 22:00S 41°12' E 146°24'0 0.0 290 / 91013.0 5.5 12.4
2020-Jul-02 21:00S 41°12' E 146°24'2 3.9 270 / 61012.8 5.4 12.5
2020-Jul-02 20:30S 41°11' E 146°22'611.1
2020-Jul-02 20:00S 41°06' E 146°18'817.4 260 / 221012.3 8.0 12.8
2020-Jul-02 19:30S 40°58' E 146°16'1223.7
2020-Jul-02 19:00S 40°48' E 146°06'918.2 250 / 291012.0 8.6 13.0
2020-Jul-02 18:30S 40°39' E 146°03'1222.8
2020-Jul-02 18:00S 40°30' E 145°54'2020.2 240 / 321012.0 9.9 13.0
2020-Jul-02 17:00S 40°12' E 145°42'2625.7 260 / 321011.7 9.5 13.1
2020-Jul-02 16:00S 39°48' E 145°30'4020.2 270 / 361013.0 10.9 13.4
2020-Jul-02 14:00S 39°12' E 145°06'2625.7 280 / 361014.7 9.1 13.8
2020-Jul-02 13:00S 38°48' E 144°54'1918.6 290 / 331014.9 11.0 13.7
2020-Jul-02 12:00S 38°30' E 144°48'1312.9 300 / 281015.8 10.8 13.6
2020-Jul-02 11:00S 38°18' E 144°42'1111.2 320 / 241015.4 10.0 13.2
2020-Jul-02 10:00S 38°12' E 144°54'1818.0 320 / 261015.5 11.6 12.4
2020-Jul-02 09:00S 37°54' E 144°54'6 6.0 330 / 151015.6 11.4 12.8
2020-Jul-02 08:00S 37°48' E 144°54'0 0.0 320 / 121015.0 11.6 12.2
2020-Jul-02 07:00S 37°48' E 144°54'0 0.0 310 / 91014.4 12.7 12.2
2020-Jul-02 06:00S 37°48' E 144°54'0 0.0 300 / 151014.0 13.1 12.2
2020-Jul-02 04:00S 37°48' E 144°54'0 0.0 280 / 131012.7 13.1 12.3
2020-Jul-02 03:00S 37°48' E 144°54'0 0.0 280 / 141013.1 13.2 12.3
2020-Jul-02 02:00S 37°48' E 144°54'0 0.0 300 / 151013.1 12.6 12.3
2020-Jul-02 01:00S 37°48' E 144°54'0 0.0 310 / 151013.3 12.2 12.3
2020-Jul-02 00:00S 37°48' E 144°54'0 0.0 350 / 91012.7 11.7 12.3
2020-Jul-01 23:00S 37°48' E 144°54'0 0.0 340 / 81012.0 10.3 12.3
2020-Jul-01 22:00S 37°48' E 144°54'0 0.0 320 / 91010.9 10.4 12.4
2020-Jul-01 21:00S 37°48' E 144°54'6 6.0 330 / 101010.2 10.5 12.6
2020-Jul-01 20:00S 37°54' E 144°54'2424.0 350 / 171007.9 10.7 12.3
2020-Jul-01 19:00S 38°18' E 144°54'1414.1 320 / 261006.5 11.2 12.5
2020-Jul-01 18:00S 38°18' E 144°36'2020.3 310 / 241006.2 10.6 13.5
2020-Jul-01 17:00S 38°36' E 144°48'2020.3 320 / 371002.9 11.5 13.8
2020-Jul-01 16:00S 38°54' E 145°00'2020.3 320 / 321001.6 11.4 13.9
2020-Jul-01 15:00S 39°12' E 145°12'2020.3 340 / 371000.9 14.3 13.6
2020-Jul-01 14:00S 39°30' E 145°24'2625.7 010 / 311001.4 14.1 13.4
2020-Jul-01 13:00S 39°54' E 145°36'2020.2 360 / 451002.4 12.6 13.2
2020-Jul-01 12:00S 40°12' E 145°48'2020.2 020 / 241002.9 14.3
2020-Jul-01 11:00S 40°30' E 146°00'2020.2 030 / 271004.4 14.0 13.3
2020-Jul-01 10:00S 40°48' E 146°12'2625.7 040 / 251005.9 13.3 13.4
2020-Jul-01 09:00S 41°12' E 146°24'0 0.0 060 / 91007.5 12.6 14.4
2020-Jul-01 06:00S 41°12' E 146°24'2 3.7 060 / 61009.9 13.6 12.2
2020-Jul-01 05:28S 41°11' E 146°22'2 4.0
2020-Jul-01 05:00S 41°12' E 146°24'0 0.0 050 / 61010.4 14.2
2020-Jul-01 04:00S 41°12' E 146°24'2 8.2 060 / 101011.2 13.4 12.0
2020-Jul-01 03:46S 41°11' E 146°22'2 2.5
2020-Jul-01 03:00S 41°12' E 146°24'2 3.5 060 / 81012.5 13.4 12.0
2020-Jul-01 02:27S 41°11' E 146°22'2 4.2
2020-Jul-01 02:00S 41°12' E 146°24'0 0.0 050 / 71013.1 13.8 12.0
2020-Jul-01 01:00S 41°12' E 146°24'0 0.0 190 / 61014.2 11.3 12.2
2020-Jul-01 00:00S 41°12' E 146°24'2 7.3 180 / 51014.9 9.0 12.5
2020-Jun-30 23:44S 41°11' E 146°22'2 1.1
2020-Jun-30 22:00S 41°12' E 146°24'2 3.3 180 / 51015.3 8.5 12.6
2020-Jun-30 21:25S 41°11' E 146°22'2 4.5
2020-Jun-30 21:00S 41°12' E 146°24'6 6.0 180 / 51014.8 8.4 12.8
2020-Jun-30 20:00S 41°06' E 146°24'2322.6 340 / 71014.9 12.8 12.8
2020-Jun-30 19:00S 40°48' E 146°06'817.3 340 / 81014.7 13.0 13.1
2020-Jun-30 18:30S 40°40' E 146°04'1223.8
2020-Jun-30 18:00S 40°30' E 145°54'2020.2 340 / 121014.9 13.0 13.2
2020-Jun-30 17:00S 40°12' E 145°42'2625.7 340 / 111015.2 12.8 13.3
2020-Jun-30 16:00S 39°48' E 145°30'2020.2 340 / 141015.5 12.9 13.2
2020-Jun-30 15:00S 39°30' E 145°18'2020.3 330 / 151015.9 13.2 13.5
2020-Jun-30 14:00S 39°12' E 145°06'2625.7 340 / 161016.4 13.4 13.8
2020-Jun-30 13:00S 38°48' E 144°54'2020.3 350 / 151017.1 13.2 13.9
2020-Jun-30 12:00S 38°30' E 144°42'1312.9 010 / 121017.2 13.2 13.7
2020-Jun-30 11:00S 38°18' E 144°48'30 7.6 360 / 311016.0 13.2 13.3
2020-Jun-30 07:00S 37°48' E 144°54'0 0.0 020 / 201015.2 13.5 12.4
2020-Jun-30 06:00S 37°48' E 144°54'0 0.0 020 / 201014.8 13.8 12.4
2020-Jun-30 05:00S 37°48' E 144°54'0 0.0 020 / 211014.9 14.1 12.3
2020-Jun-30 04:00S 37°48' E 144°54'0 0.0 010 / 181015.5 14.1
2020-Jun-30 03:00S 37°48' E 144°54'0 0.0 350 / 191016.8 13.9 12.4
2020-Jun-30 02:00S 37°48' E 144°54'0 0.0 360 / 191017.3 13.8 12.4
2020-Jun-30 01:00S 37°48' E 144°54'0 0.0 010 / 201018.7 12.8 12.3
2020-Jun-29 23:00S 37°48' E 144°54'0 0.0 010 / 141019.9 11.1 12.3
2020-Jun-29 22:00S 37°48' E 144°54'0 0.0 360 / 51020.5 8.8 12.2
2020-Jun-29 21:00S 37°48' E 144°54'6 6.0 290 / 21019.8 7.2 12.3
2020-Jun-29 20:00S 37°54' E 144°54'2424.0 360 / 41019.8 9.7 12.3
2020-Jun-29 19:00S 38°18' E 144°54'1414.1 070 / 171020.0 9.1 12.4
2020-Jun-29 18:00S 38°18' E 144°36'2020.3 050 / 161019.6 10.4 13.6
2020-Jun-29 17:00S 38°36' E 144°48'2020.3 050 / 251020.4 10.1 13.8
2020-Jun-29 16:00S 38°54' E 145°00'2020.3 050 / 181021.3 11.8 13.9
2020-Jun-29 15:00S 39°12' E 145°12'2020.3 050 / 231022.2 11.3 13.7
2020-Jun-29 14:00S 39°30' E 145°24'2020.2 050 / 261022.5 11.5 13.3
2020-Jun-29 13:00S 39°48' E 145°36'2625.7 050 / 271023.0 11.7 13.2
2020-Jun-29 12:00S 40°12' E 145°48'2020.2 050 / 201024.5 11.6 13.3
2020-Jun-29 11:00S 40°30' E 146°00'2020.2 050 / 131025.6 11.5 13.2
2020-Jun-29 10:00S 40°48' E 146°12'2625.7 030 / 101025.6 11.4 13.2
2020-Jun-29 09:00S 41°12' E 146°24'0 0.0 190 / 41025.9 8.3 13.8
2020-Jun-29 07:00S 41°12' E 146°24'0 0.0 350 / 51025.6 11.1 12.6
2020-Jun-29 06:00S 41°12' E 146°24'2 2.9 350 / 51025.8 11.4 12.3
2020-Jun-29 05:19S 41°11' E 146°22'2 1.4
2020-Jun-29 04:00S 41°12' E 146°24'   050 / 21026.7 11.2 11.7
Track history (hours):
 
Tides and Currents Weather Stations Pressure Air Temp Water Temp Dewpoint Dewpoint Depression Visibility Wind Speed Wind Dir Waves Ship Positions

Spirit Of Tasmania II

Last reported at 2020-Jul-09 04:00 UTC. Time now 2020-Jul-09 05:23 UTC.
Position S 37°48' E 144°54'.

Length 194.3 m; beam 25 m; draft 6.2 m.

Type: Ship. MMSI: 503433000.

Wind from 010 at 14 knots

Barometer 1025.7 mb
Air temperature 15.4 ° C
Water temperature 11.9 ° C

Date/timePositionNaut miles runAvg speedWind from/ knotsBaromVisibWave heightAir tempDewpointWater temp
2020-Jul-09 04:00S 37°48' E 144°54'0 0.0 010 / 141025.7 15.4 11.9
2020-Jul-09 03:00S 37°48' E 144°54'0 0.0 010 / 151026.4 15.1 11.8
2020-Jul-09 02:00S 37°48' E 144°54'0 0.0 020 / 101027.7 14.1 11.7
2020-Jul-09 01:00S 37°48' E 144°54'0 0.0 360 / 51028.3 12.8
2020-Jul-09 00:00S 37°48' E 144°54'0 0.0 020 / 91028.0 11.1 11.7
2020-Jul-08 23:00S 37°48' E 144°54'0 0.0 010 / 111028.4 9.0 11.7
2020-Jul-08 22:00S 37°48' E 144°54'0 0.0 360 / 51027.6 8.5 11.7
2020-Jul-08 21:00S 37°48' E 144°54'6 6.0 010 / 91027.2 8.4 11.9
2020-Jul-08 20:00S 37°54' E 144°54'2424.0 030 / 141026.9 8.8 11.6
2020-Jul-08 19:00S 38°18' E 144°54'1414.1 080 / 121026.8 8.8 12.2
2020-Jul-08 18:00S 38°18' E 144°36'2020.3 030 / 141026.5 10.1 13.2
2020-Jul-08 17:00S 38°36' E 144°48'2020.3 040 / 171026.6 10.8 13.6
2020-Jul-08 16:00S 38°54' E 145°00'2020.3 030 / 151026.7 11.2 13.7
2020-Jul-08 15:00S 39°12' E 145°12'4020.2 050 / 131027.1 11.3 13.5
2020-Jul-08 13:00S 39°48' E 145°36'2625.7 360 / 71028.2 10.9 13.1
2020-Jul-08 12:00S 40°12' E 145°48'1918.8 020 / 101028.1 11.2 13.0
2020-Jul-08 11:00S 40°29' E 145°58'2589.3
2020-Jul-08 11:00S 40°30' E 146°00'2625.7 090 / 71028.4 10.9 12.9
2020-Jul-08 10:00S 40°54' E 146°12'2020.1 100 / 71029.0 9.8 12.9
2020-Jul-08 09:00S 41°12' E 146°24'0 0.0 170 / 41029.2 8.0 12.6
2020-Jul-08 07:00S 41°12' E 146°24'0 0.0 160 / 71028.3 8.2 12.5
2020-Jul-08 06:00S 41°12' E 146°24'2 3.9 170 / 71028.3 8.4 12.3
2020-Jul-08 05:30S 41°11' E 146°22'2 3.7
2020-Jul-08 05:00S 41°12' E 146°24'0 0.0 180 / 91028.5 8.5 12.7
2020-Jul-08 04:00S 41°12' E 146°24'2 1.9 180 / 61029.1 7.6 12.6
2020-Jul-08 03:01S 41°11' E 146°22'2114.7
2020-Jul-08 03:00S 41°12' E 146°24'0 0.0 190 / 71029.6 7.0 12.5
2020-Jul-08 02:00S 41°12' E 146°24'0 0.0 170 / 71030.2 6.8 12.2
2020-Jul-08 01:00S 41°12' E 146°24'0 0.0 160 / 71030.9 5.9 12.0
2020-Jul-08 00:00S 41°12' E 146°24'2 1.9 170 / 91031.5 6.3 11.5
2020-Jul-07 23:00S 41°11' E 146°22'2120.5
2020-Jul-07 23:00S 41°12' E 146°24'2 1.9 170 / 61031.6 5.7 11.1
2020-Jul-07 22:00S 41°11' E 146°22'2214.7
2020-Jul-07 22:00S 41°12' E 146°24'0 0.0 170 / 81031.0 5.1 11.5
2020-Jul-07 21:00S 41°12' E 146°24'2 3.9 170 / 81030.8 5.3 11.6
2020-Jul-07 20:30S 41°11' E 146°22'611.1
2020-Jul-07 20:00S 41°06' E 146°18'2020.2 160 / 141030.8 7.4 12.7
2020-Jul-07 19:00S 40°48' E 146°06'816.6 040 / 121030.7 10.0 12.9
2020-Jul-07 18:30S 40°40' E 146°04'1020.7
2020-Jul-07 18:00S 40°30' E 146°00'2020.2 050 / 191030.0 9.6
2020-Jul-07 17:00S 40°12' E 145°48'2020.2 050 / 151030.1 10.9 13.0
2020-Jul-07 16:00S 39°54' E 145°36'2020.2 040 / 161030.0 11.1 13.2
2020-Jul-07 15:00S 39°36' E 145°24'2020.2 040 / 161029.9 10.9 13.5
2020-Jul-07 14:00S 39°18' E 145°12'2020.3 100 / 31030.2 11.4 13.7
2020-Jul-07 13:00S 39°00' E 145°00'2625.8 220 / 51030.6 10.7 13.7
2020-Jul-07 12:00S 38°36' E 144°48'2020.3 200 / 91031.2 10.7 13.5
2020-Jul-07 11:00S 38°18' E 144°36'1515.4 140 / 21031.8 10.7 13.0
2020-Jul-07 10:00S 38°12' E 144°54'2412.0 180 / 121031.7 10.5 12.1
2020-Jul-07 08:00S 37°48' E 144°54'0 0.0 170 / 61031.1 11.3 11.9
2020-Jul-07 07:00S 37°48' E 144°54'0 0.0 160 / 81031.0 11.1 11.8
2020-Jul-07 06:00S 37°48' E 144°54'0 0.0 160 / 81030.8 10.7 11.8
2020-Jul-07 05:00S 37°48' E 144°54'0 0.0 190 / 41031.2 11.0 11.8
2020-Jul-07 04:00S 37°48' E 144°54'0 0.0 190 / 61031.3 10.4 11.8
2020-Jul-07 03:00S 37°48' E 144°54'0 0.0 210 / 51031.8 10.7 11.8
2020-Jul-07 00:00S 37°48' E 144°54'0 0.0 270 / 21033.0 10.0
2020-Jul-06 23:00S 37°48' E 144°54'0 0.0 270 / 31032.7 9.8 11.8
2020-Jul-06 22:00S 37°48' E 144°54'0 0.0 270 / 31032.5 9.7 11.8
2020-Jul-06 21:00S 37°48' E 144°54'6 6.0 290 / 41032.2 9.2 12.0
2020-Jul-06 20:00S 37°54' E 144°54'2424.0 260 / 121031.9 9.7
2020-Jul-06 19:00S 38°18' E 144°54'1414.1 290 / 111031.3 10.1 12.3
2020-Jul-06 18:00S 38°18' E 144°36'4120.3 290 / 131031.6 10.0 13.4
2020-Jul-06 16:00S 38°54' E 145°00'2020.3 230 / 111031.3 12.1 13.8
2020-Jul-06 15:00S 39°12' E 145°12'2625.7 240 / 181030.7 11.8 13.6
2020-Jul-06 14:00S 39°36' E 145°24'2020.2 240 / 171030.9 12.1 13.5
2020-Jul-06 13:00S 39°54' E 145°36'2020.2 230 / 201030.5 12.1 13.2
2020-Jul-06 12:00S 40°12' E 145°48'2020.2 250 / 221029.8 11.8 13.0
2020-Jul-06 11:00S 40°30' E 146°00'629.1 250 / 271028.5 11.3 13.0
2020-Jul-06 10:48S 40°35' E 146°02'1721.8
2020-Jul-06 10:00S 40°51' E 146°11'3208.0
2020-Jul-06 10:00S 40°54' E 146°12'816.9 280 / 201028.0 11.7 13.0
2020-Jul-06 09:30S 41°01' E 146°18'1223.3
2020-Jul-06 09:00S 41°12' E 146°24'0 0.0 290 / 101026.8 10.8
2020-Jul-06 08:00S 41°12' E 146°24'0 0.0 290 / 101026.5 11.6 12.3
2020-Jul-06 07:00S 41°12' E 146°24'0 0.0 250 / 91026.4 13.2 12.6
2020-Jul-06 06:00S 41°12' E 146°24'0 0.0 230 / 151024.9 13.9 12.9
2020-Jul-06 05:00S 41°12' E 146°24'0 0.0 230 / 71025.5 14.9 12.9
2020-Jul-06 04:00S 41°12' E 146°24'0 0.0 240 / 101025.0 14.5 12.7
2020-Jul-06 03:00S 41°12' E 146°24'0 0.0 260 / 91024.6 14.3 12.9
2020-Jul-06 02:00S 41°12' E 146°24'0 0.0 310 / 121025.7 12.7 12.9
2020-Jul-06 01:00S 41°12' E 146°24'0 0.0 300 / 111026.4 12.1 12.8
2020-Jul-06 00:00S 41°12' E 146°24'0 0.0 280 / 31026.6 9.6 12.6
2020-Jul-05 23:00S 41°12' E 146°24'0 0.0 260 / 41027.0 4.8 12.5
2020-Jul-05 22:00S 41°12' E 146°24'0 0.0 200 / 51026.7 4.6 11.9
2020-Jul-05 21:00S 41°12' E 146°24'0 0.0 180 / 21026.4 5.1 11.4
2020-Jul-05 20:00S 41°12' E 146°24'0 0.0 270 / 81025.5 9.6
2020-Jul-05 19:00S 41°12' E 146°24'0 0.0 240 / 61025.1 7.7 11.7
2020-Jul-05 17:00S 41°12' E 146°24'0 0.0 220 / 61025.0 9.5 12.2
2020-Jul-05 15:00S 41°12' E 146°24'0 0.0 180 / 41024.6 9.5 12.8
2020-Jul-05 14:00S 41°12' E 146°24'0 0.0 300 / 21024.7 9.8
2020-Jul-05 13:00S 41°12' E 146°24'0 0.0 210 / 31024.4 11.1
2020-Jul-05 12:00S 41°12' E 146°24'0 0.0 190 / 91023.9 11.4 12.8
2020-Jul-05 11:00S 41°12' E 146°24'0 0.0 200 / 81023.8 11.5 12.7
2020-Jul-05 10:00S 41°12' E 146°24'0 0.0 210 / 141023.0 12.4 12.6
2020-Jul-05 09:00S 41°12' E 146°24'0 0.0 210 / 101022.9 13.0 12.4
2020-Jul-05 08:00S 41°12' E 146°24'0 0.0 210 / 111022.2 13.7 12.3
2020-Jul-05 07:00S 41°12' E 146°24'0 0.0 230 / 121020.5 14.6 12.1
2020-Jul-05 06:00S 41°12' E 146°24'0 0.0 230 / 111019.9 15.8 12.3
2020-Jul-05 05:00S 41°12' E 146°24'0 0.0 240 / 111020.6 16.3 12.6
2020-Jul-05 04:00S 41°12' E 146°24'212.0 270 / 81020.2 16.2 12.7
2020-Jul-05 03:50S 41°11' E 146°22'2 2.3
2020-Jul-05 03:00S 41°12' E 146°24'229.2 290 / 101020.8 15.5 12.7
2020-Jul-05 02:56S 41°11' E 146°22'2 2.0
2020-Jul-05 02:00S 41°12' E 146°24'225.9 290 / 81021.4 14.6 12.8
2020-Jul-05 01:55S 41°11' E 146°22'2 2.1
2020-Jul-05 01:00S 41°12' E 146°24'0 0.0 300 / 71021.5 12.6 12.7
2020-Jul-05 00:00S 41°12' E 146°24'0 0.0 280 / 71021.2 12.8 12.7
2020-Jul-04 23:00S 41°12' E 146°24'2 3.8 230 / 111020.6 12.3 12.7
2020-Jul-04 22:30S 41°11' E 146°22'2 3.8
2020-Jul-04 22:00S 41°12' E 146°24'0 0.0 260 / 41020.5 11.0 12.6
2020-Jul-04 21:00S 41°12' E 146°24'6 5.8 230 / 31019.7 11.1 12.7
2020-Jul-04 20:00S 41°07' E 146°21'3170.3
2020-Jul-04 20:00S 41°06' E 146°18'918.7 220 / 141019.3 11.7 12.9
2020-Jul-04 19:30S 40°57' E 146°15'1222.6
2020-Jul-04 19:00S 40°48' E 146°06'1021.6 240 / 291019.4 11.3 12.9
2020-Jul-04 18:30S 40°38' E 146°04'1630.1
2020-Jul-04 18:00S 40°24' E 145°54'1918.6 240 / 311020.3 10.9 13.1
2020-Jul-04 17:00S 40°06' E 145°48'2322.7 230 / 361020.6 11.1 13.0
2020-Jul-04 16:00S 39°48' E 145°30'2020.2 230 / 361021.5 11.3 13.5
2020-Jul-04 15:00S 39°30' E 145°18'1918.6 240 / 401021.4 11.8 13.5
2020-Jul-04 14:00S 39°12' E 145°12'2020.3 230 / 371022.7 11.6 13.8
2020-Jul-04 13:00S 38°54' E 145°00'2020.3 230 / 361023.4 11.8 13.6
2020-Jul-04 12:00S 38°36' E 144°48'19 9.3 230 / 341023.4 12.5 13.5
2020-Jul-04 10:00S 38°18' E 144°54'1818.0 240 / 251023.7 11.9 12.1
2020-Jul-04 09:00S 38°00' E 144°54'1212.0 260 / 171024.2 11.5 12.1
2020-Jul-04 08:00S 37°48' E 144°54'0 0.0 250 / 61023.9 11.9 11.6
2020-Jul-04 07:00S 37°48' E 144°54'0 0.0 260 / 81023.3 13.1
2020-Jul-04 06:00S 37°48' E 144°54'0 0.0 240 / 101023.0 12.8 11.4
2020-Jul-04 05:00S 37°48' E 144°54'0 0.0 280 / 61022.8 12.7 11.3
2020-Jul-04 04:00S 37°48' E 144°54'0 0.0 280 / 101022.8 13.1 11.3
2020-Jul-04 03:00S 37°48' E 144°54'0 0.0 270 / 151023.4 12.5 11.5
2020-Jul-04 02:00S 37°48' E 144°54'0 0.0 270 / 71024.1 11.8 11.5
2020-Jul-04 01:00S 37°48' E 144°54'0 0.0 310 / 91024.3 10.5 11.4
2020-Jul-04 00:00S 37°48' E 144°54'0 0.0 310 / 91024.3 9.2 11.3
2020-Jul-03 23:00S 37°48' E 144°54'0 0.0 310 / 101023.9 8.4 11.5
2020-Jul-03 22:00S 37°48' E 144°54'0 0.0 300 / 81024.0 8.0
2020-Jul-03 21:00S 37°48' E 144°54'6 6.0 320 / 91023.6 7.0 11.7
2020-Jul-03 20:00S 37°54' E 144°54'2424.0 280 / 221023.0 7.8 11.9
2020-Jul-03 19:00S 38°18' E 144°54'1414.1 280 / 221022.1 8.3 12.2
2020-Jul-03 18:00S 38°18' E 144°36'2020.3 290 / 211022.6 7.9 13.2
2020-Jul-03 17:00S 38°36' E 144°48'2020.3 240 / 241021.7 10.9 13.6
2020-Jul-03 16:00S 38°54' E 145°00'2020.3 240 / 271021.2 10.4 13.7
2020-Jul-03 15:00S 39°12' E 145°12'2020.3 240 / 291020.6 10.5 13.7
2020-Jul-03 14:00S 39°30' E 145°24'1918.6 240 / 291019.7 10.3 13.4
2020-Jul-03 13:00S 39°48' E 145°30'2020.2 230 / 281019.7 9.6 13.3
2020-Jul-03 12:00S 40°06' E 145°42'2625.7 230 / 291019.0 9.6 13.0
2020-Jul-03 11:00S 40°30' E 145°54'816.5 230 / 291018.0 9.5 13.0
2020-Jul-03 10:30S 40°36' E 146°02'1121.8
2020-Jul-03 10:00S 40°45' E 146°08'3252.9
2020-Jul-03 10:00S 40°48' E 146°06'919.4 230 / 271017.3 9.2 13.0
2020-Jul-03 09:30S 40°55' E 146°14'1121.7
2020-Jul-03 09:00S 41°05' E 146°20'3194.0
2020-Jul-03 09:00S 41°06' E 146°24'510.7 260 / 171015.8 9.1 13.1
2020-Jul-03 08:30S 41°11' E 146°22'2 3.6
2020-Jul-03 08:00S 41°12' E 146°24'0 0.0 240 / 121015.5 9.1 12.3
2020-Jul-03 07:00S 41°12' E 146°24'2 3.1 250 / 121014.9 9.8 11.7
2020-Jul-03 06:23S 41°11' E 146°22'2 4.9
2020-Jul-03 06:00S 41°12' E 146°24'0 0.0 260 / 131013.9 10.9 11.0
2020-Jul-03 05:00S 41°12' E 146°24'0 0.0 280 / 111013.3 11.2 10.9
2020-Jul-03 04:00S 41°12' E 146°24'214.6 280 / 111013.2 10.8 11.0
2020-Jul-03 03:52S 41°11' E 146°22'2 2.2
2020-Jul-03 03:00S 41°12' E 146°24'2 4.3 280 / 111013.5 10.5 11.4
2020-Jul-03 02:33S 41°11' E 146°22'0 0.0
2020-Jul-03 02:21S 41°11' E 146°22'2 5.3
2020-Jul-03 02:00S 41°12' E 146°24'0 0.0 270 / 81013.1 10.2 12.1
2020-Jul-03 01:00S 41°12' E 146°24'0 0.0 290 / 101013.2 9.1 12.3
2020-Jul-03 00:00S 41°12' E 146°24'0 0.0 300 / 61013.4 7.7 12.5
2020-Jul-02 23:00S 41°12' E 146°24'0 0.0 280 / 91013.3 6.3 12.5
2020-Jul-02 22:00S 41°12' E 146°24'0 0.0 290 / 91013.0 5.5 12.4
2020-Jul-02 21:00S 41°12' E 146°24'2 3.9 270 / 61012.8 5.4 12.5
2020-Jul-02 20:30S 41°11' E 146°22'611.1
2020-Jul-02 20:00S 41°06' E 146°18'817.4 260 / 221012.3 8.0 12.8
2020-Jul-02 19:30S 40°58' E 146°16'1223.7
2020-Jul-02 19:00S 40°48' E 146°06'918.2 250 / 291012.0 8.6 13.0
2020-Jul-02 18:30S 40°39' E 146°03'1222.8
2020-Jul-02 18:00S 40°30' E 145°54'2020.2 240 / 321012.0 9.9 13.0
2020-Jul-02 17:00S 40°12' E 145°42'2625.7 260 / 321011.7 9.5 13.1
2020-Jul-02 16:00S 39°48' E 145°30'4020.2 270 / 361013.0 10.9 13.4
2020-Jul-02 14:00S 39°12' E 145°06'2625.7 280 / 361014.7 9.1 13.8
2020-Jul-02 13:00S 38°48' E 144°54'1918.6 290 / 331014.9 11.0 13.7
2020-Jul-02 12:00S 38°30' E 144°48'1312.9 300 / 281015.8 10.8 13.6
2020-Jul-02 11:00S 38°18' E 144°42'1111.2 320 / 241015.4 10.0 13.2
2020-Jul-02 10:00S 38°12' E 144°54'1818.0 320 / 261015.5 11.6 12.4
2020-Jul-02 09:00S 37°54' E 144°54'6 6.0 330 / 151015.6 11.4 12.8
2020-Jul-02 08:00S 37°48' E 144°54'0 0.0 320 / 121015.0 11.6 12.2
2020-Jul-02 07:00S 37°48' E 144°54'0 0.0 310 / 91014.4 12.7 12.2
2020-Jul-02 06:00S 37°48' E 144°54'0 0.0 300 / 151014.0 13.1 12.2
2020-Jul-02 04:00S 37°48' E 144°54'0 0.0 280 / 131012.7 13.1 12.3
2020-Jul-02 03:00S 37°48' E 144°54'0 0.0 280 / 141013.1 13.2 12.3
2020-Jul-02 02:00S 37°48' E 144°54'0 0.0 300 / 151013.1 12.6 12.3
2020-Jul-02 01:00S 37°48' E 144°54'0 0.0 310 / 151013.3 12.2 12.3
2020-Jul-02 00:00S 37°48' E 144°54'0 0.0 350 / 91012.7 11.7 12.3
2020-Jul-01 23:00S 37°48' E 144°54'0 0.0 340 / 81012.0 10.3 12.3
2020-Jul-01 22:00S 37°48' E 144°54'0 0.0 320 / 91010.9 10.4 12.4
2020-Jul-01 21:00S 37°48' E 144°54'6 6.0 330 / 101010.2 10.5 12.6
2020-Jul-01 20:00S 37°54' E 144°54'2424.0 350 / 171007.9 10.7 12.3
2020-Jul-01 19:00S 38°18' E 144°54'1414.1 320 / 261006.5 11.2 12.5
2020-Jul-01 18:00S 38°18' E 144°36'2020.3 310 / 241006.2 10.6 13.5
2020-Jul-01 17:00S 38°36' E 144°48'2020.3 320 / 371002.9 11.5 13.8
2020-Jul-01 16:00S 38°54' E 145°00'2020.3 320 / 321001.6 11.4 13.9
2020-Jul-01 15:00S 39°12' E 145°12'2020.3 340 / 371000.9 14.3 13.6
2020-Jul-01 14:00S 39°30' E 145°24'2625.7 010 / 311001.4 14.1 13.4
2020-Jul-01 13:00S 39°54' E 145°36'2020.2 360 / 451002.4 12.6 13.2
2020-Jul-01 12:00S 40°12' E 145°48'2020.2 020 / 241002.9 14.3
2020-Jul-01 11:00S 40°30' E 146°00'2020.2 030 / 271004.4 14.0 13.3
2020-Jul-01 10:00S 40°48' E 146°12'2625.7 040 / 251005.9 13.3 13.4
2020-Jul-01 09:00S 41°12' E 146°24'0 0.0 060 / 91007.5 12.6 14.4
2020-Jul-01 06:00S 41°12' E 146°24'2 3.7 060 / 61009.9 13.6 12.2
2020-Jul-01 05:28S 41°11' E 146°22'2 4.0
2020-Jul-01 05:00S 41°12' E 146°24'0 0.0 050 / 61010.4 14.2
2020-Jul-01 04:00S 41°12' E 146°24'2 8.2 060 / 101011.2 13.4 12.0
2020-Jul-01 03:46S 41°11' E 146°22'2 2.5
2020-Jul-01 03:00S 41°12' E 146°24'2 3.5 060 / 81012.5 13.4 12.0
2020-Jul-01 02:27S 41°11' E 146°22'2 4.2
2020-Jul-01 02:00S 41°12' E 146°24'0 0.0 050 / 71013.1 13.8 12.0
2020-Jul-01 01:00S 41°12' E 146°24'0 0.0 190 / 61014.2 11.3 12.2
2020-Jul-01 00:00S 41°12' E 146°24'2 7.3 180 / 51014.9 9.0 12.5
2020-Jun-30 23:44S 41°11' E 146°22'2 1.1
2020-Jun-30 22:00S 41°12' E 146°24'2 3.3 180 / 51015.3 8.5 12.6
2020-Jun-30 21:25S 41°11' E 146°22'2 4.5
2020-Jun-30 21:00S 41°12' E 146°24'6 6.0 180 / 51014.8 8.4 12.8
2020-Jun-30 20:00S 41°06' E 146°24'2322.6 340 / 71014.9 12.8 12.8
2020-Jun-30 19:00S 40°48' E 146°06'817.3 340 / 81014.7 13.0 13.1
2020-Jun-30 18:30S 40°40' E 146°04'1223.8
2020-Jun-30 18:00S 40°30' E 145°54'2020.2 340 / 121014.9 13.0 13.2
2020-Jun-30 17:00S 40°12' E 145°42'2625.7 340 / 111015.2 12.8 13.3
2020-Jun-30 16:00S 39°48' E 145°30'2020.2 340 / 141015.5 12.9 13.2
2020-Jun-30 15:00S 39°30' E 145°18'2020.3 330 / 151015.9 13.2 13.5
2020-Jun-30 14:00S 39°12' E 145°06'2625.7 340 / 161016.4 13.4 13.8
2020-Jun-30 13:00S 38°48' E 144°54'2020.3 350 / 151017.1 13.2 13.9
2020-Jun-30 12:00S 38°30' E 144°42'1312.9 010 / 121017.2 13.2 13.7
2020-Jun-30 11:00S 38°18' E 144°48'30 7.6 360 / 311016.0 13.2 13.3
2020-Jun-30 07:00S 37°48' E 144°54'0 0.0 020 / 201015.2 13.5 12.4
2020-Jun-30 06:00S 37°48' E 144°54'0 0.0 020 / 201014.8 13.8 12.4
2020-Jun-30 05:00S 37°48' E 144°54'0 0.0 020 / 211014.9 14.1 12.3
2020-Jun-30 04:00S 37°48' E 144°54'0 0.0 010 / 181015.5 14.1
2020-Jun-30 03:00S 37°48' E 144°54'0 0.0 350 / 191016.8 13.9 12.4
2020-Jun-30 02:00S 37°48' E 144°54'0 0.0 360 / 191017.3 13.8 12.4
2020-Jun-30 01:00S 37°48' E 144°54'0 0.0 010 / 201018.7 12.8 12.3
2020-Jun-29 23:00S 37°48' E 144°54'0 0.0 010 / 141019.9 11.1 12.3
2020-Jun-29 22:00S 37°48' E 144°54'0 0.0 360 / 51020.5 8.8 12.2
2020-Jun-29 21:00S 37°48' E 144°54'6 6.0 290 / 21019.8 7.2 12.3
2020-Jun-29 20:00S 37°54' E 144°54'2424.0 360 / 41019.8 9.7 12.3
2020-Jun-29 19:00S 38°18' E 144°54'1414.1 070 / 171020.0 9.1 12.4
2020-Jun-29 18:00S 38°18' E 144°36'2020.3 050 / 161019.6 10.4 13.6
2020-Jun-29 17:00S 38°36' E 144°48'2020.3 050 / 251020.4 10.1 13.8
2020-Jun-29 16:00S 38°54' E 145°00'2020.3 050 / 181021.3 11.8 13.9
2020-Jun-29 15:00S 39°12' E 145°12'2020.3 050 / 231022.2 11.3 13.7
2020-Jun-29 14:00S 39°30' E 145°24'2020.2 050 / 261022.5 11.5 13.3
2020-Jun-29 13:00S 39°48' E 145°36'2625.7 050 / 271023.0 11.7 13.2
2020-Jun-29 12:00S 40°12' E 145°48'2020.2 050 / 201024.5 11.6 13.3
2020-Jun-29 11:00S 40°30' E 146°00'2020.2 050 / 131025.6 11.5 13.2
2020-Jun-29 10:00S 40°48' E 146°12'2625.7 030 / 101025.6 11.4 13.2
2020-Jun-29 09:00S 41°12' E 146°24'0 0.0 190 / 41025.9 8.3 13.8
2020-Jun-29 07:00S 41°12' E 146°24'0 0.0 350 / 51025.6 11.1 12.6
2020-Jun-29 06:00S 41°12' E 146°24'2 2.9 350 / 51025.8 11.4 12.3
2020-Jun-29 05:19S 41°11' E 146°22'2 1.4
2020-Jun-29 04:00S 41°12' E 146°24'   050 / 21026.7 11.2 11.7

Dump ship's entire track history